createdAt,value
2022-11-13T00:00:35.491Z,102807.78
2022-11-13T00:03:02.032Z,102793.28
2022-11-13T00:05:28.495Z,102796.66
2022-11-13T00:07:54.920Z,102801.78
2022-11-13T00:10:21.409Z,102800.44
2022-11-13T00:12:48.268Z,102800.13
2022-11-13T00:15:15.148Z,102796.41
2022-11-13T00:17:41.562Z,102803.47
2022-11-13T00:20:08.338Z,102806.69
2022-11-13T00:22:34.827Z,102811.97
2022-11-13T00:25:01.280Z,102812.06
2022-11-13T00:27:30.200Z,102813.94
2022-11-13T00:29:56.973Z,102810.25
2022-11-13T00:32:23.669Z,102813.06
2022-11-13T00:34:50.414Z,102809.81
2022-11-13T00:37:16.940Z,102817.41
2022-11-13T00:39:43.814Z,102809.47
2022-11-13T00:42:10.330Z,102807.84
2022-11-13T00:44:36.774Z,102806.69
2022-11-13T00:47:03.284Z,102799.97
2022-11-13T00:49:30.358Z,102788.72
2022-11-13T00:51:56.874Z,102792.31
2022-11-13T00:54:23.333Z,102781.91
2022-11-13T00:56:49.850Z,102780.91
2022-11-13T00:59:16.286Z,102777.16
2022-11-13T01:01:42.823Z,102778.31
2022-11-13T01:04:09.292Z,102781.88
2022-11-13T01:06:35.935Z,102786.91
2022-11-13T01:09:02.618Z,102791.84
2022-11-13T01:11:30.165Z,102788.09
2022-11-13T01:13:57.129Z,102786.00
2022-11-13T01:16:26.469Z,102785.47
2022-11-13T01:18:56.643Z,102781.97
2022-11-13T01:21:25.773Z,102778.13
2022-11-13T01:23:52.353Z,102774.50
2022-11-13T01:26:20.183Z,102776.75
2022-11-13T01:28:47.436Z,102772.78
2022-11-13T01:31:21.138Z,102765.47
2022-11-13T01:33:48.220Z,102766.19
2022-11-13T01:36:20.580Z,102759.72
2022-11-13T01:38:47.746Z,102752.47
2022-11-13T01:41:28.939Z,102758.06
2022-11-13T01:43:56.376Z,102771.72
2022-11-13T01:46:29.986Z,102762.72
2022-11-13T01:49:08.568Z,102761.00
2022-11-13T01:51:39.487Z,102760.25
2022-11-13T01:54:10.123Z,102763.78
2022-11-13T01:56:37.231Z,102753.47
2022-11-13T01:59:16.691Z,102758.88
2022-11-13T02:01:43.318Z,102756.06
2022-11-13T02:04:09.885Z,102751.50
2022-11-13T02:06:42.257Z,102747.28
2022-11-13T02:09:09.949Z,102746.41
2022-11-13T02:11:37.827Z,102735.78
2022-11-13T02:14:05.577Z,102727.06
2022-11-13T02:16:33.228Z,102722.84
2022-11-13T02:19:00.371Z,102723.88
2022-11-13T02:21:38.421Z,102731.09
2022-11-13T02:24:18.061Z,102729.25
2022-11-13T02:26:44.895Z,102726.94
2022-11-13T02:29:11.404Z,102723.72
2022-11-13T02:31:37.981Z,102720.25
2022-11-13T02:34:04.463Z,102724.84
2022-11-13T02:36:32.099Z,102731.41
2022-11-13T02:39:01.625Z,102736.78
2022-11-13T02:41:28.112Z,102726.25
2022-11-13T02:43:54.536Z,102737.31
2022-11-13T02:46:20.994Z,102738.97
2022-11-13T02:48:47.422Z,102733.41
2022-11-13T02:51:14.300Z,102728.03
2022-11-13T02:53:40.791Z,102725.19
2022-11-13T02:56:07.587Z,102723.22
2022-11-13T02:58:34.054Z,102714.25
2022-11-13T03:01:04.483Z,102715.34
2022-11-13T03:03:56.588Z,102713.38
2022-11-13T03:06:17.352Z,102706.31
2022-11-13T03:08:43.806Z,102703.97
2022-11-13T03:11:11.392Z,102695.16
2022-11-13T03:13:38.241Z,102700.44
2022-11-13T03:16:10.152Z,102697.81
2022-11-13T03:21:12.944Z,102704.44
2022-11-13T03:23:41.169Z,102700.41
2022-11-13T03:26:10.335Z,102693.59
2022-11-13T03:28:37.520Z,102696.09
2022-11-13T03:31:04.514Z,102693.94
2022-11-13T03:33:31.523Z,102693.84
2022-11-13T03:35:58.114Z,102700.19
2022-11-13T03:38:24.686Z,102698.03
2022-11-13T03:40:51.663Z,102688.63
2022-11-13T03:43:18.459Z,102688.22
2022-11-13T03:45:46.494Z,102684.16
2022-11-13T03:48:14.179Z,102685.06
2022-11-13T03:50:45.622Z,102683.69
2022-11-13T03:53:12.658Z,102678.59
2022-11-13T03:55:39.313Z,102676.50
2022-11-13T03:58:06.007Z,102673.00
2022-11-13T04:00:33.081Z,102661.75
2022-11-13T04:02:59.636Z,102668.09
2022-11-13T04:05:26.251Z,102668.25
2022-11-13T04:07:52.766Z,102662.88
2022-11-13T04:10:19.279Z,102666.94
2022-11-13T04:12:45.733Z,102660.13
2022-11-13T04:15:12.203Z,102653.84
2022-11-13T04:17:38.668Z,102650.03
2022-11-13T04:20:05.691Z,102648.59
2022-11-13T04:22:32.167Z,102641.72
2022-11-13T04:24:58.624Z,102645.38
2022-11-13T04:27:25.082Z,102641.66
2022-11-13T04:29:51.572Z,102633.56
2022-11-13T04:32:18.078Z,102631.63
2022-11-13T04:34:44.530Z,102635.84
2022-11-13T04:37:10.994Z,102631.69
2022-11-13T04:39:37.484Z,102634.84
2022-11-13T04:42:36.307Z,102631.59
2022-11-13T04:45:03.040Z,102629.09
2022-11-13T04:47:29.505Z,102632.38
2022-11-13T04:49:55.925Z,102626.91
2022-11-13T04:52:22.440Z,102626.94
2022-11-13T04:54:48.869Z,102632.28
2022-11-13T04:57:15.305Z,102623.47
2022-11-13T04:59:41.738Z,102637.53
2022-11-13T05:02:08.214Z,102630.16
2022-11-13T05:04:34.816Z,102625.81
2022-11-13T05:07:01.370Z,102628.03
2022-11-13T05:09:27.985Z,102625.47
2022-11-13T05:11:54.427Z,102629.06
2022-11-13T05:14:20.898Z,102621.72
2022-11-13T05:16:47.371Z,102627.16
2022-11-13T05:19:13.815Z,102624.97
2022-11-13T05:21:40.314Z,102619.69
2022-11-13T05:24:07.130Z,102625.75
2022-11-13T05:26:33.587Z,102623.09
2022-11-13T05:29:00.857Z,102627.94
2022-11-13T05:31:27.389Z,102622.41
2022-11-13T05:33:53.989Z,102625.78
2022-11-13T05:36:20.832Z,102622.94
2022-11-13T05:38:47.606Z,102610.19
2022-11-13T05:41:17.307Z,102612.31
2022-11-13T05:43:44.409Z,102599.25
2022-11-13T05:46:15.100Z,102612.09
2022-11-13T05:48:42.482Z,102606.66
2022-11-13T05:51:15.247Z,102608.75
2022-11-13T05:53:42.350Z,102599.72
2022-11-13T05:56:18.468Z,102603.28
2022-11-13T05:58:45.547Z,102601.78
2022-11-13T06:01:14.426Z,102593.16
2022-11-13T06:03:41.302Z,102591.94
2022-11-13T06:06:09.367Z,102586.81
2022-11-13T06:08:36.394Z,102597.19
2022-11-13T06:11:11.349Z,102588.59
2022-11-13T06:13:38.679Z,102585.84
2022-11-13T06:16:05.314Z,102586.66
2022-11-13T06:18:32.664Z,102580.59
2022-11-13T06:21:15.354Z,102582.75
2022-11-13T06:23:42.328Z,102594.06
2022-11-13T06:26:14.710Z,102595.44
2022-11-13T06:28:41.579Z,102592.44
2022-11-13T06:31:17.187Z,102591.69
2022-11-13T06:33:43.818Z,102585.94
2022-11-13T06:36:18.896Z,102590.63
2022-11-13T06:38:45.495Z,102583.81
2022-11-13T06:41:14.174Z,102575.16
2022-11-13T06:43:41.072Z,102581.56
2022-11-13T06:46:19.960Z,102573.38
2022-11-13T06:48:48.585Z,102576.03
2022-11-13T06:51:19.028Z,102567.06
2022-11-13T06:53:47.356Z,102565.22
2022-11-13T06:56:14.877Z,102566.44
2022-11-13T06:58:42.365Z,102565.56
2022-11-13T07:01:17.599Z,102573.09
2022-11-13T07:03:45.017Z,102571.66
2022-11-13T07:06:23.136Z,102562.16
2022-11-13T07:08:50.499Z,102565.63
2022-11-13T07:11:21.900Z,102563.63
2022-11-13T07:13:49.308Z,102565.41
2022-11-13T07:16:18.256Z,102569.88
2022-11-13T07:18:51.579Z,102563.22
2022-11-13T07:21:19.030Z,102563.63
2022-11-13T07:23:48.857Z,102569.38
2022-11-13T07:26:17.238Z,102575.31
2022-11-13T07:28:44.248Z,102574.59
2022-11-13T07:31:12.868Z,102568.03
2022-11-13T07:33:39.449Z,102571.97
2022-11-13T07:36:06.555Z,102574.13
2022-11-13T07:38:33.028Z,102572.63
2022-11-13T07:40:59.850Z,102575.25
2022-11-13T07:43:26.538Z,102578.38
2022-11-13T07:45:54.870Z,102580.56
2022-11-13T07:48:24.891Z,102588.22
2022-11-13T07:50:51.570Z,102582.13
2022-11-13T07:53:18.930Z,102594.16
2022-11-13T07:55:45.942Z,102595.00
2022-11-13T07:58:12.585Z,102600.31
2022-11-13T08:00:39.642Z,102590.75
2022-11-13T08:03:08.064Z,102588.19
2022-11-13T08:05:34.624Z,102591.91
2022-11-13T08:08:01.184Z,102585.97
2022-11-13T08:10:28.140Z,102583.63
2022-11-13T08:13:02.594Z,102590.94
2022-11-13T08:15:30.091Z,102595.22
2022-11-13T08:17:57.660Z,102602.63
2022-11-13T08:20:25.169Z,102590.72
2022-11-13T08:22:51.740Z,102592.69
2022-11-13T08:25:18.748Z,102598.56
2022-11-13T08:27:45.586Z,102601.09
2022-11-13T08:30:13.253Z,102610.47
2022-11-13T08:32:39.751Z,102602.22
2022-11-13T08:35:06.547Z,102600.69
2022-11-13T08:37:33.543Z,102600.28
2022-11-13T08:40:00.002Z,102605.47
2022-11-13T08:42:26.442Z,102598.97
2022-11-13T08:44:52.890Z,102604.03
2022-11-13T08:47:19.362Z,102607.44
2022-11-13T08:49:45.814Z,102611.28
2022-11-13T08:52:12.305Z,102606.38
2022-11-13T08:54:38.755Z,102597.22
2022-11-13T08:57:06.235Z,102596.81
2022-11-13T08:59:32.788Z,102613.47
2022-11-13T09:01:59.797Z,102598.56
2022-11-13T09:04:26.751Z,102608.53
2022-11-13T09:06:53.583Z,102604.81
2022-11-13T09:09:21.917Z,102611.47
2022-11-13T09:11:48.406Z,102613.13
2022-11-13T09:14:15.096Z,102608.00
2022-11-13T09:16:41.965Z,102603.34
2022-11-13T09:21:36.067Z,102599.19
2022-11-13T09:24:03.525Z,102601.94
2022-11-13T09:26:29.997Z,102605.84
2022-11-13T09:28:56.791Z,102608.53
2022-11-13T09:31:23.437Z,102601.81
2022-11-13T09:33:49.895Z,102596.09
2022-11-13T09:36:17.387Z,102600.53
2022-11-13T09:38:44.232Z,102603.41
2022-11-13T09:41:14.852Z,102601.69
2022-11-13T09:43:59.616Z,102600.53
2022-11-13T09:46:51.808Z,102598.53
2022-11-13T09:49:47.318Z,102604.97
2022-11-13T09:52:24.761Z,102602.41
2022-11-13T09:54:51.575Z,102600.03
2022-11-13T09:57:31.150Z,102600.69
2022-11-13T10:00:11.919Z,102601.41
2022-11-13T10:03:17.680Z,102600.41
2022-11-13T10:05:49.928Z,102591.28
2022-11-13T10:08:20.019Z,102591.84
2022-11-13T10:10:56.305Z,102596.78
2022-11-13T10:13:32.483Z,102589.97
2022-11-13T10:16:22.612Z,102595.59
2022-11-13T10:18:50.855Z,102593.44
2022-11-13T10:21:27.769Z,102591.44
2022-11-13T10:23:58.158Z,102585.00
2022-11-13T10:26:28.018Z,102581.88
2022-11-13T10:29:01.007Z,102582.59
2022-11-13T10:31:27.491Z,102585.22
2022-11-13T10:33:55.305Z,102579.97
2022-11-13T10:36:36.241Z,102585.56
2022-11-13T10:39:06.696Z,102584.84
2022-11-13T10:41:33.763Z,102583.66
2022-11-13T10:44:07.720Z,102580.25
2022-11-13T10:46:34.538Z,102569.63
2022-11-13T10:49:18.918Z,102564.47
2022-11-13T10:51:45.421Z,102570.59
2022-11-13T10:54:23.284Z,102566.84
2022-11-13T10:57:25.164Z,102570.59
2022-11-13T10:59:51.798Z,102568.75
2022-11-13T11:02:23.473Z,102563.72
2022-11-13T11:04:50.244Z,102561.56
2022-11-13T11:07:22.136Z,102573.31
2022-11-13T11:09:50.915Z,102556.56
2022-11-13T11:12:22.026Z,102564.34
2022-11-13T11:14:56.908Z,102550.75
2022-11-13T11:17:27.328Z,102546.72
2022-11-13T11:20:01.032Z,102555.34
2022-11-13T11:22:30.677Z,102565.06
2022-11-13T11:25:06.243Z,102551.31
2022-11-13T11:27:37.731Z,102540.06
2022-11-13T11:30:12.646Z,102551.50
2022-11-13T11:32:44.886Z,102542.72
2022-11-13T11:35:41.826Z,102541.53
2022-11-13T11:38:28.349Z,102546.72
2022-11-13T11:41:13.324Z,102537.38
2022-11-13T11:43:46.055Z,102544.13
2022-11-13T11:46:13.710Z,102540.06
2022-11-13T11:48:40.665Z,102539.38
2022-11-13T11:51:27.422Z,102529.78
2022-11-13T11:53:58.440Z,102531.16
2022-11-13T11:56:31.528Z,102530.41
2022-11-13T11:59:06.352Z,102529.25
2022-11-13T12:02:18.229Z,102523.28
2022-11-13T12:05:03.574Z,102519.38
2022-11-13T12:07:36.204Z,102502.88
2022-11-13T12:10:24.640Z,102502.38
2022-11-13T12:13:03.997Z,102502.78
2022-11-13T12:16:09.611Z,102494.38
2022-11-13T12:18:50.780Z,102486.69
2022-11-13T12:21:51.630Z,102495.34
2022-11-13T12:24:22.929Z,102487.44
2022-11-13T12:27:10.664Z,102484.56
2022-11-13T12:30:08.677Z,102488.56
2022-11-13T12:32:42.932Z,102476.88
2022-11-13T12:35:20.691Z,102477.13
2022-11-13T12:37:55.807Z,102475.88
2022-11-13T12:40:33.390Z,102467.38
2022-11-13T12:43:50.473Z,102461.44
2022-11-13T12:46:17.762Z,102459.22
2022-11-13T12:48:46.476Z,102456.16
2022-11-13T12:51:16.089Z,102453.28
2022-11-13T12:53:51.476Z,102454.09
2022-11-13T12:56:24.023Z,102449.63
2022-11-13T12:59:31.333Z,102443.72
2022-11-13T13:02:07.162Z,102439.41
2022-11-13T13:04:57.959Z,102427.50
2022-11-13T13:07:50.722Z,102434.72
2022-11-13T13:10:47.543Z,102432.72
2022-11-13T13:13:25.971Z,102445.78
2022-11-13T13:15:59.953Z,102432.41
2022-11-13T13:18:33.495Z,102433.25
2022-11-13T13:21:09.566Z,102423.41
2022-11-13T13:23:38.638Z,102420.81
2022-11-13T13:26:17.530Z,102416.00
2022-11-13T13:28:49.806Z,102413.22
2022-11-13T13:31:39.770Z,102417.25
2022-11-13T13:34:21.507Z,102414.22
2022-11-13T13:36:58.803Z,102408.53
2022-11-13T13:40:02.777Z,102406.25
2022-11-13T13:42:41.471Z,102400.19
2022-11-13T13:45:32.735Z,102393.41
2022-11-13T13:48:00.529Z,102398.19
2022-11-13T13:50:33.769Z,102397.06
2022-11-13T13:53:00.616Z,102393.75
2022-11-13T13:55:28.610Z,102396.84
2022-11-13T13:57:55.274Z,102397.22
2022-11-13T14:00:21.799Z,102396.50
2022-11-13T14:02:50.156Z,102396.81
2022-11-13T14:05:24.954Z,102400.31
2022-11-13T14:07:51.447Z,102395.81
2022-11-13T14:10:23.980Z,102396.72
2022-11-13T14:12:50.796Z,102392.81
2022-11-13T14:15:24.118Z,102399.59
2022-11-13T14:17:50.614Z,102402.59
2022-11-13T14:20:17.656Z,102398.16
2022-11-13T14:22:48.394Z,102401.56
2022-11-13T14:25:24.276Z,102399.69
2022-11-13T14:27:51.745Z,102405.63
2022-11-13T14:30:27.075Z,102391.28
2022-11-13T14:32:54.094Z,102388.75
2022-11-13T14:35:25.570Z,102381.91
2022-11-13T14:37:53.519Z,102389.53
2022-11-13T14:40:35.670Z,102378.03
2022-11-13T14:43:07.740Z,102373.81
2022-11-13T14:45:34.353Z,102380.97
2022-11-13T14:48:16.103Z,102386.56
2022-11-13T14:50:57.444Z,102377.66
2022-11-13T14:53:38.614Z,102378.94
2022-11-13T14:56:10.731Z,102384.72
2022-11-13T14:58:47.362Z,102380.25
2022-11-13T15:01:16.900Z,102371.97
2022-11-13T15:03:44.727Z,102370.56
2022-11-13T15:06:14.891Z,102376.72
2022-11-13T15:08:41.499Z,102370.34
2022-11-13T15:11:09.714Z,102364.25
2022-11-13T15:13:36.167Z,102370.84
2022-11-13T15:16:02.753Z,102369.59
2022-11-13T15:18:29.254Z,102367.72
2022-11-13T15:20:55.717Z,102367.78
2022-11-13T15:23:25.772Z,102357.47
2022-11-13T15:25:54.670Z,102356.09
2022-11-13T15:28:21.137Z,102348.88
2022-11-13T15:30:47.634Z,102341.88
2022-11-13T15:33:15.703Z,102351.22
2022-11-13T15:35:42.901Z,102343.75
2022-11-13T15:38:12.380Z,102342.84
2022-11-13T15:40:39.216Z,102341.75
2022-11-13T15:43:14.871Z,102340.88
2022-11-13T15:45:44.265Z,102343.28
2022-11-13T15:48:11.105Z,102330.84
2022-11-13T15:50:37.555Z,102334.78
2022-11-13T15:53:05.668Z,102328.16
2022-11-13T15:55:32.707Z,102325.22
2022-11-13T15:58:02.062Z,102327.63
2022-11-13T16:00:28.988Z,102322.03
2022-11-13T16:02:56.878Z,102330.09
2022-11-13T16:05:25.536Z,102329.50
2022-11-13T16:07:53.313Z,102320.19
2022-11-13T16:10:24.935Z,102323.41
2022-11-13T16:12:52.630Z,102320.66
2022-11-13T16:15:19.717Z,102321.06
2022-11-13T16:17:54.607Z,102317.53
2022-11-13T16:20:21.098Z,102310.78
2022-11-13T16:22:47.820Z,102307.88
2022-11-13T16:25:16.941Z,102314.19
2022-11-13T16:27:43.587Z,102311.97
2022-11-13T16:30:17.419Z,102308.59
2022-11-13T16:32:43.849Z,102301.78
2022-11-13T16:35:17.795Z,102291.06
2022-11-13T16:37:44.250Z,102295.94
2022-11-13T16:40:16.774Z,102300.06
2022-11-13T16:42:43.247Z,102291.47
2022-11-13T16:45:10.830Z,102290.78
2022-11-13T16:47:37.283Z,102292.41
2022-11-13T16:50:03.873Z,102297.00
2022-11-13T16:52:31.869Z,102296.13
2022-11-13T16:55:03.690Z,102292.53
2022-11-13T16:57:32.958Z,102289.78
2022-11-13T16:59:59.516Z,102282.34
2022-11-13T17:02:29.098Z,102280.88
2022-11-13T17:04:56.295Z,102276.34
2022-11-13T17:07:22.847Z,102276.78
2022-11-13T17:10:09.973Z,102282.09
2022-11-13T17:12:38.794Z,102286.88
2022-11-13T17:15:05.994Z,102278.00
2022-11-13T17:17:32.422Z,102279.03
2022-11-13T17:19:58.898Z,102274.22
2022-11-13T17:22:25.458Z,102275.66
2022-11-13T17:24:51.942Z,102269.81
2022-11-13T17:27:19.469Z,102273.16
2022-11-13T17:29:47.028Z,102268.75
2022-11-13T17:32:14.616Z,102272.59
2022-11-13T17:34:43.460Z,102261.50
2022-11-13T17:37:10.066Z,102271.31
2022-11-13T17:39:37.589Z,102266.59
2022-11-13T17:42:04.236Z,102258.22
2022-11-13T17:44:34.899Z,102257.19
2022-11-13T17:47:01.315Z,102251.41
2022-11-13T17:49:29.864Z,102254.09
2022-11-13T17:51:56.888Z,102237.72
2022-11-13T17:54:25.271Z,102237.84
2022-11-13T17:56:51.709Z,102247.06
2022-11-13T17:59:18.174Z,102239.53
2022-11-13T18:01:44.704Z,102242.38
2022-11-13T18:04:12.325Z,102235.34
2022-11-13T18:06:38.880Z,102235.66
2022-11-13T18:09:06.354Z,102224.75
2022-11-13T18:11:32.985Z,102223.22
2022-11-13T18:14:01.183Z,102215.75
2022-11-13T18:16:31.447Z,102222.00
2022-11-13T18:19:00.011Z,102220.09
2022-11-13T18:21:32.414Z,102222.53
2022-11-13T18:24:05.967Z,102222.06
2022-11-13T18:26:33.606Z,102213.72
2022-11-13T18:29:00.894Z,102219.41
2022-11-13T18:31:28.027Z,102215.44
2022-11-13T18:33:54.883Z,102211.31
2022-11-13T18:36:21.401Z,102221.91
2022-11-13T18:38:47.903Z,102211.34
2022-11-13T18:41:18.817Z,102203.38
2022-11-13T18:43:46.558Z,102208.25
2022-11-13T18:46:14.602Z,102197.22
2022-11-13T18:48:42.660Z,102197.56
2022-11-13T18:51:14.954Z,102195.31
2022-11-13T18:53:43.633Z,102195.28
2022-11-13T18:56:15.043Z,102195.19
2022-11-13T18:58:43.226Z,102197.06
2022-11-13T19:01:22.197Z,102191.41
2022-11-13T19:04:16.150Z,102197.06
2022-11-13T19:06:38.450Z,102191.66
2022-11-13T19:09:07.449Z,102190.38
2022-11-13T19:11:34.367Z,102193.28
2022-11-13T19:14:00.866Z,102186.63
2022-11-13T19:16:36.723Z,102198.63
2022-11-13T19:19:17.900Z,102190.72
2022-11-13T19:21:45.217Z,102191.91
2022-11-13T19:24:13.189Z,102188.34
2022-11-13T19:26:40.654Z,102188.34
2022-11-13T19:29:07.231Z,102176.56
2022-11-13T19:31:34.544Z,102179.75
2022-11-13T19:34:03.852Z,102179.09
2022-11-13T19:36:31.763Z,102181.03
2022-11-13T19:38:59.094Z,102175.22
2022-11-13T19:41:27.536Z,102165.00
2022-11-13T19:43:54.396Z,102174.88
2022-11-13T19:46:21.375Z,102165.22
2022-11-13T19:48:48.766Z,102169.00
2022-11-13T19:51:23.955Z,102168.13
2022-11-13T19:53:55.077Z,102167.94
2022-11-13T19:56:22.193Z,102159.81
2022-11-13T19:58:50.276Z,102162.22
2022-11-13T20:01:19.760Z,102162.78
2022-11-13T20:03:46.684Z,102161.16
2022-11-13T20:06:17.226Z,102155.63
2022-11-13T20:08:44.028Z,102157.56
2022-11-13T20:11:12.076Z,102157.25
2022-11-13T20:13:39.364Z,102145.34
2022-11-13T20:16:06.834Z,102147.38
2022-11-13T20:18:33.323Z,102144.63
2022-11-13T20:21:00.298Z,102144.75
2022-11-13T20:23:27.084Z,102144.00
2022-11-13T20:25:55.917Z,102147.28
2022-11-13T20:28:23.091Z,102137.38
2022-11-13T20:30:49.745Z,102149.81
2022-11-13T20:33:22.195Z,102150.34
2022-11-13T20:35:55.323Z,102150.59
2022-11-13T20:38:21.853Z,102147.56
2022-11-13T20:40:48.493Z,102154.84
2022-11-13T20:43:14.970Z,102158.44
2022-11-13T20:45:41.452Z,102151.44
2022-11-13T20:48:07.908Z,102154.16
2022-11-13T20:50:37.981Z,102159.81
2022-11-13T20:53:05.307Z,102159.19
2022-11-13T20:55:32.023Z,102157.78
2022-11-13T20:57:58.549Z,102148.19
2022-11-13T21:00:25.021Z,102149.09
2022-11-13T21:02:51.910Z,102145.91
2022-11-13T21:05:18.559Z,102143.00
2022-11-13T21:07:45.020Z,102144.84
2022-11-13T21:10:11.480Z,102141.84
2022-11-13T21:12:37.929Z,102144.69
2022-11-13T21:15:04.937Z,102136.13
2022-11-13T21:17:31.392Z,102140.97
2022-11-13T21:19:58.014Z,102137.72
2022-11-13T21:22:24.557Z,102126.41
2022-11-13T21:24:51.009Z,102129.00
2022-11-13T21:27:17.536Z,102129.06
2022-11-13T21:29:44.021Z,102115.59
2022-11-13T21:32:10.531Z,102122.22
2022-11-13T21:34:36.968Z,102115.06
2022-11-13T21:37:03.521Z,102118.66
2022-11-13T21:39:31.012Z,102108.94
2022-11-13T21:41:57.464Z,102111.97
2022-11-13T21:44:24.045Z,102120.78
2022-11-13T21:46:50.508Z,102117.59
2022-11-13T21:49:17.052Z,102121.78
2022-11-13T21:51:43.803Z,102125.09
2022-11-13T21:54:10.399Z,102114.28
2022-11-13T21:56:37.971Z,102120.16
2022-11-13T21:59:05.473Z,102110.88
2022-11-13T22:01:37.861Z,102107.34
2022-11-13T22:04:04.975Z,102110.00
2022-11-13T22:06:33.222Z,102110.28
2022-11-13T22:09:01.230Z,102100.06
2022-11-13T22:11:30.990Z,102106.69
2022-11-13T22:13:58.020Z,102105.66
2022-11-13T22:16:26.091Z,102095.75
2022-11-13T22:18:57.120Z,102100.38
2022-11-13T22:21:24.589Z,102094.13
2022-11-13T22:23:51.278Z,102093.75
2022-11-13T22:26:18.571Z,102094.00
2022-11-13T22:28:46.224Z,102079.22
2022-11-13T22:31:29.675Z,102088.50
2022-11-13T22:33:56.651Z,102081.47
2022-11-13T22:36:25.601Z,102079.44
2022-11-13T22:38:52.588Z,102072.09
2022-11-13T22:41:23.517Z,102075.16
2022-11-13T22:43:56.599Z,102067.19
2022-11-13T22:46:25.324Z,102075.44
2022-11-13T22:48:53.169Z,102074.88
2022-11-13T22:51:23.017Z,102081.47
2022-11-13T22:53:54.644Z,102081.06
2022-11-13T22:56:22.675Z,102071.53
2022-11-13T22:58:50.363Z,102062.97
2022-11-13T23:01:22.032Z,102062.50
2022-11-13T23:03:49.538Z,102057.22
2022-11-13T23:06:18.336Z,102050.00
2022-11-13T23:08:44.804Z,102053.59
2022-11-13T23:11:13.468Z,102054.31
2022-11-13T23:13:41.723Z,102049.06
2022-11-13T23:16:08.679Z,102045.16
2022-11-13T23:18:35.381Z,102045.88
2022-11-13T23:21:01.862Z,102042.28
2022-11-13T23:23:28.455Z,102039.13
2022-11-13T23:25:54.919Z,102036.88
2022-11-13T23:28:21.410Z,102036.81
2022-11-13T23:30:47.964Z,102034.03
2022-11-13T23:33:15.529Z,102039.81
2022-11-13T23:35:42.906Z,102028.16
2022-11-13T23:38:10.775Z,102019.59
2022-11-13T23:40:37.255Z,102020.63
2022-11-13T23:43:03.805Z,102016.13
2022-11-13T23:45:30.482Z,102019.16
2022-11-13T23:47:56.936Z,102004.22
2022-11-13T23:50:23.442Z,102012.28
2022-11-13T23:52:49.920Z,102004.31
2022-11-13T23:55:17.015Z,101992.94
2022-11-13T23:57:43.511Z,101999.22
